createdAt,value
2019-06-27T00:00:37.392Z,4.23
2019-06-27T00:03:05.337Z,4.43
2019-06-27T00:05:33.319Z,4.40
2019-06-27T00:08:01.221Z,4.53
2019-06-27T00:10:29.087Z,3.87
2019-06-27T00:12:57.004Z,4.43
2019-06-27T00:15:24.879Z,4.53
2019-06-27T00:17:52.796Z,4.60
2019-06-27T00:20:21.078Z,4.17
2019-06-27T00:22:48.992Z,4.17
2019-06-27T00:25:17.192Z,4.53
2019-06-27T00:27:45.123Z,4.50
2019-06-27T00:30:13.202Z,4.30
2019-06-27T00:32:41.122Z,4.60
2019-06-27T00:35:09.196Z,5.00
2019-06-27T00:37:37.583Z,4.50
2019-06-27T00:40:06.191Z,4.60
2019-06-27T00:42:34.453Z,4.03
2019-06-27T00:45:02.425Z,4.37
2019-06-27T00:47:30.337Z,4.30
2019-06-27T00:49:58.244Z,4.27
2019-06-27T00:52:26.147Z,4.70
2019-06-27T00:54:54.015Z,4.30
2019-06-27T00:57:22.115Z,4.23
2019-06-27T00:59:49.983Z,4.57
2019-06-27T01:02:17.910Z,4.10
2019-06-27T01:04:45.782Z,4.17
2019-06-27T01:07:13.666Z,4.57
2019-06-27T01:09:41.580Z,4.30
2019-06-27T01:12:09.472Z,4.40
2019-06-27T01:14:37.388Z,4.77
2019-06-27T01:17:05.261Z,4.70
2019-06-27T01:19:33.186Z,4.10
2019-06-27T01:22:01.412Z,4.50
2019-06-27T01:24:29.725Z,4.67
2019-06-27T01:26:57.608Z,4.40
2019-06-27T01:29:25.522Z,4.67
2019-06-27T01:31:53.385Z,4.50
2019-06-27T01:34:21.684Z,4.60
2019-06-27T01:36:49.923Z,5.03
2019-06-27T01:39:17.848Z,4.70
2019-06-27T01:41:45.729Z,4.60
2019-06-27T01:44:31.302Z,4.33
2019-06-27T01:47:00.023Z,5.10
2019-06-27T01:49:27.988Z,4.90
2019-06-27T01:51:55.902Z,4.50
2019-06-27T01:54:23.818Z,4.43
2019-06-27T01:56:51.699Z,4.27
2019-06-27T01:59:19.616Z,4.43
2019-06-27T02:01:47.508Z,4.80
2019-06-27T02:04:15.410Z,4.43
2019-06-27T02:06:43.292Z,5.03
2019-06-27T02:09:11.214Z,4.40
2019-06-27T02:11:39.092Z,4.73
2019-06-27T02:14:07.099Z,5.27
2019-06-27T02:16:34.977Z,4.57
2019-06-27T02:19:02.932Z,5.50
2019-06-27T02:21:30.805Z,4.70
2019-06-27T02:23:58.684Z,4.57
2019-06-27T02:26:26.604Z,5.63
2019-06-27T02:28:54.471Z,5.17
2019-06-27T02:31:22.397Z,4.77
2019-06-27T02:33:50.267Z,5.13
2019-06-27T02:36:18.159Z,4.47
2019-06-27T02:38:46.032Z,5.13
2019-06-27T02:41:13.949Z,4.83
2019-06-27T02:43:42.229Z,4.70
2019-06-27T02:46:10.786Z,4.80
2019-06-27T02:48:38.707Z,4.87
2019-06-27T02:51:06.651Z,4.57
2019-06-27T02:53:34.526Z,4.60
2019-06-27T02:56:02.452Z,4.77
2019-06-27T02:58:32.488Z,5.03
2019-06-27T03:01:00.539Z,4.80
2019-06-27T03:03:28.807Z,4.77
2019-06-27T03:05:56.708Z,4.73
2019-06-27T03:08:24.572Z,4.90
2019-06-27T03:10:53.056Z,5.27
2019-06-27T03:13:20.937Z,4.97
2019-06-27T03:15:48.851Z,5.00
2019-06-27T03:18:16.816Z,4.67
2019-06-27T03:20:44.727Z,5.80
2019-06-27T03:23:13.000Z,5.90
2019-06-27T03:25:41.308Z,4.97
2019-06-27T03:28:09.219Z,4.97
2019-06-27T03:30:37.185Z,5.20
2019-06-27T03:33:05.191Z,5.27
2019-06-27T03:35:33.066Z,5.10
2019-06-27T03:38:01.299Z,5.03
2019-06-27T03:40:29.209Z,5.43
2019-06-27T03:42:57.121Z,5.43
2019-06-27T03:45:24.988Z,5.00
2019-06-27T03:47:52.892Z,4.40
2019-06-27T03:50:20.796Z,5.13
2019-06-27T03:52:48.754Z,5.40
2019-06-27T03:55:16.971Z,5.63
2019-06-27T03:57:45.596Z,5.47
2019-06-27T04:00:19.386Z,5.67
2019-06-27T04:02:47.712Z,5.70
2019-06-27T04:05:15.576Z,4.93
2019-06-27T04:07:43.479Z,5.37
2019-06-27T04:10:11.347Z,5.10
2019-06-27T04:12:39.264Z,5.33
2019-06-27T04:15:07.368Z,5.60
2019-06-27T04:17:35.266Z,5.43
2019-06-27T04:20:03.390Z,6.17
2019-06-27T04:22:31.403Z,5.37
2019-06-27T04:24:59.277Z,5.13
2019-06-27T04:27:27.147Z,5.13
2019-06-27T04:29:55.158Z,5.10
2019-06-27T04:32:23.032Z,5.13
2019-06-27T04:34:50.989Z,5.17
2019-06-27T04:37:18.865Z,5.43
2019-06-27T04:39:46.981Z,5.00
2019-06-27T04:42:14.909Z,5.40
2019-06-27T04:44:42.820Z,5.10
2019-06-27T04:47:11.028Z,5.50
2019-06-27T04:49:39.003Z,6.53
2019-06-27T04:52:07.267Z,5.57
2019-06-27T04:54:35.528Z,5.20
2019-06-27T04:57:03.595Z,5.20
2019-06-27T04:59:47.971Z,5.47
2019-06-27T05:02:01.192Z,5.27
2019-06-27T05:04:29.120Z,5.50
2019-06-27T05:06:56.995Z,5.10
2019-06-27T05:09:24.896Z,5.17
2019-06-27T05:11:52.771Z,5.87
2019-06-27T05:14:20.681Z,4.97
2019-06-27T05:16:48.556Z,5.30
2019-06-27T05:19:16.474Z,5.47
2019-06-27T05:21:44.375Z,4.93
2019-06-27T05:24:12.698Z,5.50
2019-06-27T05:26:40.580Z,5.57
2019-06-27T05:29:08.545Z,5.60
2019-06-27T05:31:36.429Z,5.43
2019-06-27T05:34:04.391Z,5.80
2019-06-27T05:36:32.301Z,5.47
2019-06-27T05:39:00.166Z,5.67
2019-06-27T05:41:28.131Z,6.00
2019-06-27T05:43:56.094Z,5.10
2019-06-27T05:46:24.015Z,5.87
2019-06-27T05:48:51.904Z,6.13
2019-06-27T05:51:19.839Z,6.87
2019-06-27T05:53:47.746Z,6.13
2019-06-27T05:56:15.644Z,6.13
2019-06-27T05:58:43.503Z,5.23
2019-06-27T06:01:11.932Z,5.30
2019-06-27T06:03:39.925Z,5.57
2019-06-27T06:06:08.090Z,6.10
2019-06-27T06:08:35.932Z,5.60
2019-06-27T06:11:03.863Z,5.33
2019-06-27T06:13:31.684Z,5.60
2019-06-27T06:16:01.164Z,5.80
2019-06-27T06:18:29.230Z,5.70
2019-06-27T06:20:57.131Z,6.47
2019-06-27T06:23:24.982Z,5.63
2019-06-27T06:25:52.926Z,6.03
2019-06-27T06:28:21.354Z,5.17
2019-06-27T06:30:49.274Z,7.07
2019-06-27T06:33:17.389Z,7.53
2019-06-27T06:35:45.326Z,6.47
2019-06-27T06:38:13.222Z,7.93
2019-06-27T06:40:41.955Z,6.75
2019-06-27T06:43:09.871Z,8.08
2019-06-27T06:45:37.774Z,8.75
2019-06-27T06:48:05.848Z,6.60
2019-06-27T06:50:33.795Z,7.83
2019-06-27T06:53:02.238Z,7.97
2019-06-27T06:55:30.562Z,6.70
2019-06-27T06:57:58.881Z,9.30
2019-06-27T07:00:27.388Z,7.12
2019-06-27T07:02:55.395Z,7.65
2019-06-27T07:05:23.295Z,7.35
2019-06-27T07:07:51.202Z,6.75
2019-06-27T07:10:19.279Z,8.55
2019-06-27T07:12:47.219Z,8.33
2019-06-27T07:15:15.302Z,7.40
2019-06-27T07:17:43.251Z,7.67
2019-06-27T07:20:11.592Z,6.15
2019-06-27T07:22:39.515Z,6.95
2019-06-27T07:25:07.494Z,7.70
2019-06-27T07:27:35.507Z,6.95
2019-06-27T07:30:04.497Z,6.65
2019-06-27T07:32:32.402Z,5.90
2019-06-27T07:35:00.273Z,7.17
2019-06-27T07:37:28.188Z,6.53
2019-06-27T07:39:56.051Z,6.37
2019-06-27T07:42:23.978Z,7.92
2019-06-27T07:44:51.847Z,5.37
2019-06-27T07:47:19.763Z,5.15
2019-06-27T07:49:48.061Z,4.45
2019-06-27T07:52:16.104Z,5.20
2019-06-27T07:54:43.978Z,4.83
2019-06-27T07:57:11.856Z,4.83
2019-06-27T07:59:39.763Z,4.80
2019-06-27T08:02:07.638Z,4.60
2019-06-27T08:04:35.561Z,4.42
2019-06-27T08:07:03.438Z,4.85
2019-06-27T08:09:31.351Z,5.10
2019-06-27T08:11:59.220Z,4.83
2019-06-27T08:14:27.179Z,5.22
2019-06-27T08:16:55.477Z,6.05
2019-06-27T08:19:23.362Z,5.40
2019-06-27T08:21:51.230Z,5.28
2019-06-27T08:24:19.163Z,4.92
2019-06-27T08:26:47.027Z,5.10
2019-06-27T08:29:14.950Z,4.90
2019-06-27T08:31:51.532Z,4.58
2019-06-27T08:34:12.522Z,5.72
2019-06-27T08:36:40.403Z,4.78
2019-06-27T08:39:08.323Z,4.87
2019-06-27T08:41:36.200Z,4.70
2019-06-27T08:44:04.230Z,4.97
2019-06-27T08:46:33.020Z,4.97
2019-06-27T08:49:00.991Z,4.30
2019-06-27T08:51:29.393Z,4.15
2019-06-27T08:53:57.350Z,3.83
2019-06-27T08:56:25.291Z,5.25
2019-06-27T08:58:53.679Z,4.83
2019-06-27T09:01:21.588Z,4.30
2019-06-27T09:03:49.975Z,4.58
2019-06-27T09:06:20.896Z,5.08
2019-06-27T09:08:47.613Z,4.60
2019-06-27T09:11:15.537Z,4.90
2019-06-27T09:13:43.435Z,4.95
2019-06-27T09:16:11.339Z,4.92
2019-06-27T09:18:39.211Z,4.72
2019-06-27T09:21:07.130Z,4.92
2019-06-27T09:23:37.555Z,4.75
2019-06-27T09:26:04.739Z,4.70
2019-06-27T09:28:32.626Z,4.47
2019-06-27T09:31:00.539Z,5.10
2019-06-27T09:33:28.440Z,5.20
2019-06-27T09:35:56.372Z,4.92
2019-06-27T09:38:24.236Z,4.20
2019-06-27T09:40:52.172Z,4.28
2019-06-27T09:43:20.094Z,4.70
2019-06-27T09:45:48.015Z,4.45
2019-06-27T09:48:15.988Z,5.05
2019-06-27T09:50:44.090Z,3.80
2019-06-27T09:53:12.003Z,4.58
2019-06-27T09:55:39.934Z,4.75
2019-06-27T09:58:07.803Z,4.15
2019-06-27T10:00:35.720Z,4.87
2019-06-27T10:03:03.647Z,5.12
2019-06-27T10:05:31.593Z,4.35
2019-06-27T10:07:59.459Z,4.30
2019-06-27T10:10:27.370Z,4.90
2019-06-27T10:12:55.264Z,4.62
2019-06-27T10:15:23.185Z,4.87
2019-06-27T10:17:51.043Z,4.40
2019-06-27T10:20:19.370Z,4.47
2019-06-27T10:22:47.247Z,4.35
2019-06-27T10:25:15.138Z,4.90
2019-06-27T10:27:43.143Z,5.12
2019-06-27T10:30:13.116Z,4.70
2019-06-27T10:32:54.381Z,5.00
2019-06-27T10:35:10.823Z,5.00
2019-06-27T10:37:38.743Z,5.10
2019-06-27T10:40:08.128Z,5.25
2019-06-27T10:42:36.055Z,5.33
2019-06-27T10:45:04.602Z,5.85
2019-06-27T10:47:32.516Z,5.28
2019-06-27T10:50:00.415Z,5.95
2019-06-27T10:52:28.518Z,5.50
2019-06-27T10:54:56.933Z,5.72
2019-06-27T10:57:24.904Z,5.50
2019-06-27T10:59:52.870Z,6.05
2019-06-27T11:02:20.787Z,5.55
2019-06-27T11:04:49.046Z,5.78
2019-06-27T11:07:17.694Z,6.45
2019-06-27T11:09:45.913Z,6.25
2019-06-27T11:12:13.828Z,6.83
2019-06-27T11:14:41.686Z,6.22
2019-06-27T11:17:09.634Z,6.87
2019-06-27T11:19:51.472Z,7.20
2019-06-27T11:22:07.235Z,6.42
2019-06-27T11:24:35.122Z,6.78
2019-06-27T11:27:03.151Z,5.42
2019-06-27T11:29:31.028Z,6.35
2019-06-27T11:31:58.939Z,6.05
2019-06-27T11:34:26.915Z,6.45
2019-06-27T11:36:54.912Z,6.40
2019-06-27T11:39:23.451Z,6.55
2019-06-27T11:41:51.619Z,6.50
2019-06-27T11:44:19.501Z,5.72
2019-06-27T11:46:47.418Z,5.92
2019-06-27T11:49:15.295Z,5.67
2019-06-27T11:51:43.303Z,6.10
2019-06-27T11:54:11.233Z,6.03
2019-06-27T11:56:39.106Z,6.05
2019-06-27T11:59:07.040Z,5.90
2019-06-27T12:01:34.876Z,5.78
2019-06-27T12:04:02.814Z,6.30
2019-06-27T12:06:30.731Z,6.30
2019-06-27T12:08:58.721Z,6.33
2019-06-27T12:11:26.613Z,5.97
2019-06-27T12:13:54.543Z,6.03
2019-06-27T12:16:22.440Z,5.60
2019-06-27T12:18:50.355Z,6.12
2019-06-27T12:21:18.242Z,6.33
2019-06-27T12:23:46.172Z,6.67
2019-06-27T12:26:14.503Z,6.22
2019-06-27T12:28:42.455Z,5.85
2019-06-27T12:31:20.081Z,5.55
2019-06-27T12:33:40.111Z,5.53
2019-06-27T12:36:08.127Z,4.85
2019-06-27T12:38:36.050Z,5.80
2019-06-27T12:41:04.300Z,5.45
2019-06-27T12:43:32.215Z,5.70
2019-06-27T12:46:00.228Z,5.47
2019-06-27T12:48:28.135Z,5.40
2019-06-27T12:50:56.396Z,5.47
2019-06-27T12:53:24.366Z,5.60
2019-06-27T12:55:52.697Z,5.72
2019-06-27T12:58:20.664Z,5.28
2019-06-27T13:00:48.587Z,4.80
2019-06-27T13:03:16.551Z,5.78
2019-06-27T13:05:44.478Z,5.40
2019-06-27T13:08:12.350Z,4.78
2019-06-27T13:10:40.372Z,5.62
2019-06-27T13:13:08.250Z,5.33
2019-06-27T13:15:36.228Z,5.05
2019-06-27T13:18:04.143Z,5.10
2019-06-27T13:20:32.025Z,4.97
2019-06-27T13:23:00.096Z,5.37
2019-06-27T13:25:27.970Z,5.33
2019-06-27T13:27:56.406Z,5.00
2019-06-27T13:30:24.385Z,4.70
2019-06-27T13:32:52.431Z,4.90
2019-06-27T13:35:20.295Z,5.33
2019-06-27T13:37:48.197Z,5.03
2019-06-27T13:40:16.344Z,4.42
2019-06-27T13:42:44.235Z,4.60
2019-06-27T13:45:12.384Z,4.67
2019-06-27T13:47:40.626Z,5.17
2019-06-27T13:50:09.052Z,4.70
2019-06-27T13:52:37.062Z,5.22
2019-06-27T13:55:05.327Z,4.65
2019-06-27T13:57:33.228Z,4.58
2019-06-27T14:00:01.632Z,4.87
2019-06-27T14:02:29.982Z,4.35
2019-06-27T14:04:58.062Z,5.00
2019-06-27T14:07:25.927Z,5.15
2019-06-27T14:09:57.169Z,4.40
2019-06-27T14:12:23.633Z,5.37
2019-06-27T14:14:59.911Z,4.50
2019-06-27T14:17:21.303Z,4.78
2019-06-27T14:19:50.865Z,4.70
2019-06-27T14:22:32.654Z,4.67
2019-06-27T14:24:48.582Z,4.60
2019-06-27T14:27:16.504Z,4.75
2019-06-27T14:29:44.376Z,4.85
2019-06-27T14:32:12.403Z,4.33
2019-06-27T14:34:40.662Z,4.42
2019-06-27T14:37:08.527Z,4.70
2019-06-27T14:39:36.447Z,3.90
2019-06-27T14:42:04.327Z,4.40
2019-06-27T14:44:32.232Z,3.83
2019-06-27T14:47:00.103Z,4.30
2019-06-27T14:49:28.416Z,3.98
2019-06-27T14:51:56.304Z,3.80
2019-06-27T14:54:24.259Z,3.85
2019-06-27T14:56:52.139Z,3.75
2019-06-27T14:59:20.939Z,4.28
2019-06-27T15:01:49.260Z,3.95
2019-06-27T15:04:17.342Z,3.65
2019-06-27T15:06:45.262Z,4.20
2019-06-27T15:09:13.090Z,3.52
2019-06-27T15:11:41.102Z,3.50
2019-06-27T15:14:08.980Z,3.92
2019-06-27T15:16:37.314Z,3.33
2019-06-27T15:19:05.191Z,2.92
2019-06-27T15:21:33.071Z,3.92
2019-06-27T15:24:01.175Z,3.62
2019-06-27T15:26:29.039Z,3.75
2019-06-27T15:28:56.988Z,3.70
2019-06-27T15:31:25.459Z,3.70
2019-06-27T15:33:53.441Z,3.42
2019-06-27T15:36:21.391Z,3.58
2019-06-27T15:38:49.459Z,3.30
2019-06-27T15:41:17.342Z,3.25
2019-06-27T15:43:45.672Z,3.52
2019-06-27T15:46:13.613Z,3.58
2019-06-27T15:48:41.475Z,3.70
2019-06-27T15:51:09.884Z,3.70
2019-06-27T15:53:37.833Z,3.35
2019-06-27T15:56:05.754Z,3.58
2019-06-27T15:58:33.630Z,3.77
2019-06-27T16:01:01.496Z,2.83
2019-06-27T16:03:29.427Z,2.90
2019-06-27T16:06:08.563Z,2.62
2019-06-27T16:08:27.292Z,3.08
2019-06-27T16:10:55.396Z,2.98
2019-06-27T16:13:23.283Z,2.90
2019-06-27T16:15:51.158Z,2.65
2019-06-27T16:18:19.067Z,3.00
2019-06-27T16:20:47.259Z,3.30
2019-06-27T16:23:15.132Z,3.02
2019-06-27T16:25:43.201Z,2.75
2019-06-27T16:28:11.070Z,3.42
2019-06-27T16:30:38.963Z,3.27
2019-06-27T16:33:06.972Z,2.77
2019-06-27T16:35:34.834Z,2.62
2019-06-27T16:38:02.705Z,2.72
2019-06-27T16:40:30.642Z,2.40
2019-06-27T16:42:58.515Z,3.12
2019-06-27T16:45:26.613Z,2.70
2019-06-27T16:47:54.663Z,3.20
2019-06-27T16:50:22.992Z,3.02
2019-06-27T16:52:50.915Z,2.92
2019-06-27T16:55:19.393Z,2.98
2019-06-27T16:57:47.271Z,3.27
2019-06-27T17:00:15.443Z,2.95
2019-06-27T17:02:43.459Z,3.10
2019-06-27T17:05:13.143Z,3.30
2019-06-27T17:07:41.029Z,3.25
2019-06-27T17:10:09.471Z,3.55
2019-06-27T17:12:37.414Z,2.80
2019-06-27T17:15:06.299Z,3.22
2019-06-27T17:17:34.223Z,3.10
2019-06-27T17:20:02.143Z,3.33
2019-06-27T17:22:30.028Z,3.22
2019-06-27T17:24:57.941Z,3.30
2019-06-27T17:27:25.819Z,3.37
2019-06-27T17:29:53.736Z,3.20
2019-06-27T17:32:21.755Z,3.55
2019-06-27T17:34:49.622Z,3.62
2019-06-27T17:37:18.751Z,3.50
2019-06-27T17:39:46.991Z,3.22
2019-06-27T17:42:14.888Z,3.47
2019-06-27T17:44:42.751Z,3.20
2019-06-27T17:47:10.750Z,3.30
2019-06-27T17:49:38.618Z,3.20
2019-06-27T17:52:06.487Z,3.27
2019-06-27T17:54:34.935Z,3.60
2019-06-27T17:57:02.923Z,3.75
2019-06-27T17:59:30.778Z,3.90
2019-06-27T18:01:59.230Z,3.72
2019-06-27T18:04:27.113Z,3.30
2019-06-27T18:06:55.000Z,3.87
2019-06-27T18:09:22.925Z,3.77
2019-06-27T18:11:50.814Z,3.50
2019-06-27T18:14:19.108Z,3.95
2019-06-27T18:16:47.019Z,3.37
2019-06-27T18:19:14.886Z,3.50
2019-06-27T18:21:44.461Z,3.62
2019-06-27T18:24:12.774Z,3.85
2019-06-27T18:26:40.671Z,4.37
2019-06-27T18:29:08.560Z,3.70
2019-06-27T18:31:36.489Z,4.20
2019-06-27T18:34:04.480Z,3.98
2019-06-27T18:36:32.391Z,4.20
2019-06-27T18:39:00.391Z,3.47
2019-06-27T18:41:28.281Z,3.45
2019-06-27T18:43:56.160Z,3.80
2019-06-27T18:46:24.173Z,3.50
2019-06-27T18:48:52.255Z,4.15
2019-06-27T18:51:20.153Z,4.17
2019-06-27T18:53:48.134Z,3.30
2019-06-27T18:56:16.116Z,3.70
2019-06-27T18:58:43.999Z,3.47
2019-06-27T19:01:12.003Z,3.40
2019-06-27T19:03:40.276Z,3.65
2019-06-27T19:06:08.619Z,3.60
2019-06-27T19:08:36.729Z,3.77
2019-06-27T19:11:04.663Z,3.45
2019-06-27T19:13:32.549Z,4.10
2019-06-27T19:16:00.579Z,4.05
2019-06-27T19:18:44.097Z,4.62
2019-06-27T19:21:16.574Z,3.70
2019-06-27T19:23:56.082Z,4.10
2019-06-27T19:26:24.527Z,4.08
2019-06-27T19:28:52.405Z,4.35
2019-06-27T19:31:20.480Z,4.00
2019-06-27T19:33:48.483Z,4.33
2019-06-27T19:36:16.399Z,3.70
2019-06-27T19:38:44.776Z,3.70
2019-06-27T19:41:12.707Z,4.30
2019-06-27T19:43:40.559Z,4.10
2019-06-27T19:46:08.512Z,3.87
2019-06-27T19:48:36.423Z,3.77
2019-06-27T19:51:04.325Z,4.27
2019-06-27T19:53:32.183Z,5.10
2019-06-27T19:56:00.178Z,4.40
2019-06-27T19:58:28.026Z,4.23
2019-06-27T20:00:56.301Z,3.80
2019-06-27T20:03:24.371Z,4.20
2019-06-27T20:05:52.218Z,3.80
2019-06-27T20:08:20.334Z,3.67
2019-06-27T20:10:48.442Z,3.80
2019-06-27T20:13:16.307Z,3.53
2019-06-27T20:15:44.226Z,4.20
2019-06-27T20:18:12.186Z,4.07
2019-06-27T20:20:40.386Z,4.17
2019-06-27T20:23:08.434Z,3.60
2019-06-27T20:25:36.361Z,3.90
2019-06-27T20:28:05.121Z,3.60
2019-06-27T20:30:33.047Z,3.90
2019-06-27T20:33:01.374Z,3.73
2019-06-27T20:35:29.222Z,4.10
2019-06-27T20:37:57.078Z,3.73
2019-06-27T20:40:25.259Z,3.77
2019-06-27T20:42:53.570Z,3.70
2019-06-27T20:45:21.560Z,3.60
2019-06-27T20:47:49.588Z,3.70
2019-06-27T20:50:18.681Z,3.90
2019-06-27T20:52:46.954Z,3.80
2019-06-27T20:55:16.002Z,4.50
2019-06-27T20:57:43.940Z,4.10
2019-06-27T21:00:15.124Z,4.50
2019-06-27T21:02:48.040Z,4.03
2019-06-27T21:05:22.721Z,4.23
2019-06-27T21:07:56.539Z,4.23
2019-06-27T21:10:28.050Z,3.70
2019-06-27T21:12:56.003Z,4.03
2019-06-27T21:15:28.799Z,3.77
2019-06-27T21:18:27.179Z,3.80
2019-06-27T21:20:55.563Z,4.07
2019-06-27T21:23:27.795Z,4.03
2019-06-27T21:26:02.377Z,4.33
2019-06-27T21:28:38.582Z,3.60
2019-06-27T21:31:09.375Z,4.30
2019-06-27T21:33:37.256Z,4.43
2019-06-27T21:36:08.717Z,4.13
2019-06-27T21:39:08.099Z,4.40
2019-06-27T21:41:46.291Z,4.10
2019-06-27T21:44:16.787Z,4.77
2019-06-27T21:46:45.883Z,4.10
2019-06-27T21:49:18.494Z,4.63
2019-06-27T21:51:48.221Z,4.77
2019-06-27T21:54:19.233Z,4.63
2019-06-27T21:56:52.220Z,3.93
2019-06-27T21:59:40.069Z,4.63
2019-06-27T22:02:17.307Z,4.40
2019-06-27T22:04:48.428Z,4.87
2019-06-27T22:07:16.926Z,4.43
2019-06-27T22:09:47.467Z,4.23
2019-06-27T22:12:25.035Z,4.67
2019-06-27T22:14:58.333Z,4.33
2019-06-27T22:17:45.528Z,4.80
2019-06-27T22:20:21.351Z,4.80
2019-06-27T22:22:58.276Z,4.40
2019-06-27T22:25:40.232Z,4.37
2019-06-27T22:28:05.327Z,5.37
2019-06-27T22:30:37.960Z,4.23
2019-06-27T22:33:07.184Z,4.77
2019-06-27T22:35:35.687Z,4.77
2019-06-27T22:38:25.919Z,4.67
2019-06-27T22:41:12.246Z,5.07
2019-06-27T22:43:58.485Z,4.60
2019-06-27T22:46:44.788Z,4.60
2019-06-27T22:49:13.900Z,4.67
2019-06-27T22:51:51.768Z,4.50
2019-06-27T22:54:21.608Z,4.27
2019-06-27T22:56:49.630Z,5.33
2019-06-27T22:59:17.513Z,4.40
2019-06-27T23:01:45.530Z,4.77
2019-06-27T23:04:17.302Z,4.90
2019-06-27T23:06:45.275Z,4.93
2019-06-27T23:09:13.226Z,4.50
2019-06-27T23:11:43.725Z,5.13
2019-06-27T23:14:12.641Z,5.47
2019-06-27T23:16:41.067Z,5.23
2019-06-27T23:19:11.679Z,5.40
2019-06-27T23:21:41.381Z,4.40
2019-06-27T23:24:09.362Z,4.03
2019-06-27T23:26:37.251Z,4.90
2019-06-27T23:29:05.123Z,4.80
2019-06-27T23:31:33.176Z,4.73
2019-06-27T23:34:01.463Z,5.50
2019-06-27T23:36:32.832Z,4.50
2019-06-27T23:39:00.756Z,4.90
2019-06-27T23:41:29.053Z,5.40
2019-06-27T23:43:58.278Z,4.90
2019-06-27T23:46:40.084Z,5.60
2019-06-27T23:49:09.599Z,5.07
2019-06-27T23:51:37.592Z,5.20
2019-06-27T23:54:06.612Z,4.97
2019-06-27T23:56:34.572Z,5.20
2019-06-27T23:59:02.631Z,4.87
